Time,TemperatureF,DewpointF,PressureIn,WindDirection,WindDirectionDegrees,WindSpeedMPH,WindSpeedGustMPH,Humidity,HourlyPrecipIn,Conditions,Clouds,dailyrainin,SolarRadiationWatts/m^2,SoftwareType,DateUTC
2013-03-23 00:02:00,34.0,33.0,-100.00,NNW,339,7.0,12.0,97,0.00,,,0.01,0.000000,,2013-03-23 07:02:00,
2013-03-23 00:11:00,32.0,32.0,-100.00,North,0,5.0,10.0,98,0.00,,,-99.99,0.000000,,2013-03-23 07:11:00,
2013-03-23 00:33:00,32.0,32.0,-100.00,North,0,5.0,10.0,98,0.00,,,-99.99,0.000000,,2013-03-23 07:33:00,
2013-03-23 00:42:00,32.0,32.0,-100.00,North,0,5.0,10.0,98,0.00,,,-99.99,0.000000,,2013-03-23 07:42:00,
2013-03-23 00:52:00,32.0,32.0,-100.00,North,0,5.0,10.0,98,0.00,,,-99.99,0.000000,,2013-03-23 07:52:00,
2013-03-23 01:02:00,32.0,32.0,-100.00,North,0,5.0,10.0,98,0.00,,,-99.99,0.000000,,2013-03-23 08:02:00,
2013-03-23 01:11:00,33.0,32.0,-100.00,NE,47,5.0,7.0,98,0.00,,,0.01,0.000000,,2013-03-23 08:11:00,
2013-03-23 01:32:00,33.0,32.0,-100.00,NE,47,5.0,7.0,98,0.00,,,0.01,0.000000,,2013-03-23 08:32:00,
2013-03-23 01:42:00,33.0,32.0,-100.00,NE,47,5.0,7.0,98,0.00,,,0.01,0.000000,,2013-03-23 08:42:00,
2013-03-23 01:52:00,33.0,32.0,-100.00,NE,47,5.0,7.0,98,0.00,,,0.01,0.000000,,2013-03-23 08:52:00,
2013-03-23 02:02:00,33.0,32.0,-100.00,NE,47,5.0,7.0,98,0.00,,,0.01,0.000000,,2013-03-23 09:02:00,
2013-03-23 02:11:00,33.0,32.0,-100.00,ENE,64,0.0,7.0,98,0.00,,,0.01,0.000000,,2013-03-23 09:11:00,
2013-03-23 02:33:00,33.0,32.0,-100.00,ENE,64,0.0,7.0,98,0.00,,,0.01,0.000000,,2013-03-23 09:33:00,
2013-03-23 02:43:00,33.0,32.0,-100.00,ENE,64,0.0,7.0,98,0.00,,,0.01,0.000000,,2013-03-23 09:43:00,
2013-03-23 02:53:00,33.0,32.0,-100.00,ENE,64,0.0,7.0,98,0.00,,,0.01,0.000000,,2013-03-23 09:53:00,
2013-03-23 03:03:00,33.0,32.0,-100.00,ENE,64,0.0,7.0,98,0.00,,,0.01,0.000000,,2013-03-23 10:03:00,
2013-03-23 03:11:00,33.0,33.0,-100.00,ENE,57,0.0,1.0,99,0.00,,,0.01,0.000000,,2013-03-23 10:11:00,
2013-03-23 03:34:00,33.0,33.0,-100.00,ENE,57,0.0,1.0,99,0.00,,,0.01,0.000000,,2013-03-23 10:34:00,
2013-03-23 03:43:00,33.0,33.0,-100.00,ENE,57,0.0,1.0,99,0.00,,,0.01,0.000000,,2013-03-23 10:43:00,
2013-03-23 03:52:00,33.0,33.0,-100.00,ENE,57,0.0,1.0,99,0.00,,,0.01,0.000000,,2013-03-23 10:52:00,
2013-03-23 04:02:00,33.0,33.0,-100.00,ENE,57,0.0,1.0,99,0.00,,,0.01,0.000000,,2013-03-23 11:02:00,
2013-03-23 04:11:00,32.0,32.0,-100.00,ESE,110,4.0,5.0,99,0.00,,,0.01,0.000000,,2013-03-23 11:11:00,
2013-03-23 04:32:00,32.0,32.0,-100.00,ESE,110,4.0,5.0,99,0.00,,,0.01,0.000000,,2013-03-23 11:32:00,
2013-03-23 04:42:00,32.0,32.0,-100.00,ESE,110,4.0,5.0,99,0.00,,,0.01,0.000000,,2013-03-23 11:42:00,
2013-03-23 04:52:00,32.0,32.0,-100.00,ESE,110,4.0,5.0,99,0.00,,,0.01,0.000000,,2013-03-23 11:52:00,
2013-03-23 05:02:00,32.0,32.0,-100.00,ESE,110,4.0,5.0,99,0.00,,,0.01,0.000000,,2013-03-23 12:02:00,
2013-03-23 05:11:00,32.0,32.0,-100.00,SE,146,0.0,6.0,99,0.00,,,-99.99,0.000000,,2013-03-23 12:11:00,
2013-03-23 05:43:00,32.0,32.0,-100.00,SE,146,0.0,6.0,99,0.00,,,-99.99,0.000000,,2013-03-23 12:43:00,
2013-03-23 05:53:00,32.0,32.0,-100.00,SE,146,0.0,6.0,99,0.00,,,-99.99,0.000000,,2013-03-23 12:53:00,
2013-03-23 06:02:00,32.0,32.0,-100.00,SE,146,0.0,6.0,99,0.00,,,-99.99,0.000000,,2013-03-23 13:02:00,
2013-03-23 06:11:00,31.0,31.0,-100.00,SE,138,2.0,4.0,99,0.00,,,0.01,0.000000,,2013-03-23 13:11:00,
2013-03-23 06:33:00,31.0,31.0,-100.00,SE,138,2.0,4.0,99,0.00,,,0.01,0.000000,,2013-03-23 13:33:00,
2013-03-23 06:43:00,31.0,31.0,-100.00,SE,138,2.0,4.0,99,0.00,,,0.01,0.000000,,2013-03-23 13:43:00,
2013-03-23 06:53:00,31.0,31.0,-100.00,SE,138,2.0,4.0,99,0.00,,,0.01,0.000000,,2013-03-23 13:53:00,
2013-03-23 07:03:00,31.0,31.0,-100.00,SE,138,2.0,4.0,99,0.00,,,0.01,0.000000,,2013-03-23 14:03:00,
2013-03-23 07:11:00,31.0,31.0,-100.00,SSE,148,6.0,11.0,99,0.00,,,0.01,0.000000,,2013-03-23 14:11:00,
2013-03-23 07:33:00,31.0,31.0,-100.00,SSE,148,6.0,11.0,99,0.00,,,0.01,0.000000,,2013-03-23 14:33:00,
2013-03-23 07:43:00,31.0,31.0,-100.00,SSE,148,6.0,11.0,99,0.00,,,0.01,0.000000,,2013-03-23 14:43:00,
2013-03-23 07:52:00,31.0,31.0,-100.00,SSE,148,6.0,11.0,99,0.00,,,0.01,0.000000,,2013-03-23 14:52:00,
2013-03-23 08:02:00,31.0,31.0,-100.00,SSE,148,6.0,11.0,99,0.00,,,0.01,0.000000,,2013-03-23 15:02:00,
2013-03-23 08:11:00,33.0,32.0,-100.00,SE,143,4.0,13.0,97,0.00,,,0.01,57.000000,,2013-03-23 15:11:00,
2013-03-23 08:34:00,33.0,32.0,-100.00,SE,143,4.0,13.0,97,0.00,,,0.01,57.000000,,2013-03-23 15:34:00,
2013-03-23 08:44:00,33.0,32.0,-100.00,SE,143,4.0,13.0,97,0.00,,,0.01,57.000000,,2013-03-23 15:44:00,
2013-03-23 08:53:00,33.0,32.0,-100.00,SE,143,4.0,13.0,97,0.00,,,0.01,57.000000,,2013-03-23 15:53:00,
2013-03-23 09:03:00,33.0,32.0,-100.00,SE,143,4.0,13.0,97,0.00,,,0.01,57.000000,,2013-03-23 16:03:00,
2013-03-23 09:11:00,35.0,31.0,-100.00,SSE,164,3.0,9.0,84,0.00,,,-99.99,200.000000,,2013-03-23 16:11:00,
2013-03-23 09:33:00,35.0,31.0,-100.00,SSE,164,3.0,9.0,84,0.00,,,-99.99,200.000000,,2013-03-23 16:33:00,
2013-03-23 09:43:00,35.0,31.0,-100.00,SSE,164,3.0,9.0,84,0.00,,,-99.99,200.000000,,2013-03-23 16:43:00,
2013-03-23 09:53:00,35.0,31.0,-100.00,SSE,164,3.0,9.0,84,0.00,,,-99.99,200.000000,,2013-03-23 16:53:00,
2013-03-23 10:02:00,35.0,31.0,-100.00,SSE,164,3.0,9.0,84,0.00,,,-99.99,200.000000,,2013-03-23 17:02:00,
2013-03-23 10:11:00,36.0,31.0,-100.00,NNW,327,4.0,12.0,83,0.00,,,-99.99,436.000000,,2013-03-23 17:11:00,
2013-03-23 10:33:00,36.0,31.0,-100.00,NNW,327,4.0,12.0,83,0.00,,,-99.99,436.000000,,2013-03-23 17:33:00,
2013-03-23 10:43:00,36.0,31.0,-100.00,NNW,327,4.0,12.0,83,0.00,,,-99.99,436.000000,,2013-03-23 17:43:00,
2013-03-23 10:52:00,36.0,31.0,-100.00,NNW,327,4.0,12.0,83,0.00,,,-99.99,436.000000,,2013-03-23 17:52:00,
2013-03-23 11:02:00,36.0,31.0,-100.00,NNW,327,4.0,12.0,83,0.00,,,-99.99,436.000000,,2013-03-23 18:02:00,
2013-03-23 11:11:00,37.0,33.0,-100.00,NNW,346,4.0,8.0,85,0.00,,,0.00,528.000000,,2013-03-23 18:11:00,
2013-03-23 11:43:00,37.0,33.0,-100.00,NNW,346,4.0,8.0,85,0.00,,,0.00,528.000000,,2013-03-23 18:43:00,
2013-03-23 11:53:00,37.0,33.0,-100.00,NNW,346,4.0,8.0,85,0.00,,,0.00,528.000000,,2013-03-23 18:53:00,
2013-03-23 12:02:00,37.0,33.0,-100.00,NNW,346,4.0,8.0,85,0.00,,,0.00,528.000000,,2013-03-23 19:02:00,
2013-03-23 12:11:00,41.0,34.0,-100.00,North,7,6.0,10.0,77,0.00,,,0.00,727.000000,,2013-03-23 19:11:00,
2013-03-23 12:43:00,41.0,34.0,-100.00,North,7,6.0,10.0,77,0.00,,,0.00,727.000000,,2013-03-23 19:43:00,
2013-03-23 12:53:00,41.0,34.0,-100.00,North,7,6.0,10.0,77,0.00,,,0.00,727.000000,,2013-03-23 19:53:00,
2013-03-23 13:02:00,41.0,34.0,-100.00,North,7,6.0,10.0,77,0.00,,,0.00,727.000000,,2013-03-23 20:02:00,
2013-03-23 13:11:00,40.0,32.0,-100.00,WNW,301,8.0,14.0,74,0.00,,,0.00,916.000000,,2013-03-23 20:11:00,
2013-03-23 13:43:00,40.0,32.0,-100.00,WNW,301,8.0,14.0,74,0.00,,,0.00,916.000000,,2013-03-23 20:43:00,
2013-03-23 13:53:00,40.0,32.0,-100.00,WNW,301,8.0,14.0,74,0.00,,,0.00,916.000000,,2013-03-23 20:53:00,
2013-03-23 14:02:00,40.0,32.0,-100.00,WNW,301,8.0,14.0,74,0.00,,,0.00,916.000000,,2013-03-23 21:02:00,
2013-03-23 14:11:00,45.0,32.0,-100.00,WNW,294,6.0,13.0,59,0.00,,,0.00,957.000000,,2013-03-23 21:11:00,
2013-03-23 14:33:00,45.0,32.0,-100.00,WNW,294,6.0,13.0,59,0.00,,,0.00,957.000000,,2013-03-23 21:33:00,
2013-03-23 14:43:00,45.0,32.0,-100.00,WNW,294,6.0,13.0,59,0.00,,,0.00,957.000000,,2013-03-23 21:43:00,
2013-03-23 14:53:00,45.0,32.0,-100.00,WNW,294,6.0,13.0,59,0.00,,,0.00,957.000000,,2013-03-23 21:53:00,
2013-03-23 15:02:00,45.0,32.0,-100.00,WNW,294,6.0,13.0,59,0.00,,,0.00,957.000000,,2013-03-23 22:02:00,
2013-03-23 15:11:00,48.0,31.0,-100.00,NW,318,6.0,12.0,52,0.00,,,0.00,918.000000,,2013-03-23 22:11:00,
2013-03-23 15:33:00,48.0,31.0,-100.00,NW,318,6.0,12.0,52,0.00,,,0.00,918.000000,,2013-03-23 22:33:00,
2013-03-23 15:42:00,48.0,31.0,-100.00,NW,318,6.0,12.0,52,0.00,,,0.00,918.000000,,2013-03-23 22:42:00,
2013-03-23 15:53:00,48.0,31.0,-100.00,NW,318,6.0,12.0,52,0.00,,,0.00,918.000000,,2013-03-23 22:53:00,
2013-03-23 16:02:00,48.0,31.0,-100.00,NW,318,6.0,12.0,52,0.00,,,0.00,918.000000,,2013-03-23 23:02:00,
2013-03-23 16:11:00,48.0,32.0,-100.00,NNW,330,6.0,13.0,54,0.00,,,0.00,747.000000,,2013-03-23 23:11:00,
2013-03-23 16:33:00,48.0,32.0,-100.00,NNW,330,6.0,13.0,54,0.00,,,0.00,747.000000,,2013-03-23 23:33:00,
2013-03-23 16:43:00,48.0,32.0,-100.00,NNW,330,6.0,13.0,54,0.00,,,0.00,747.000000,,2013-03-23 23:43:00,
2013-03-23 16:52:00,48.0,32.0,-100.00,NNW,330,6.0,13.0,54,0.00,,,0.00,747.000000,,2013-03-23 23:52:00,
2013-03-23 17:02:00,48.0,32.0,-100.00,NNW,330,6.0,13.0,54,0.00,,,0.00,747.000000,,2013-03-24 00:02:00,
2013-03-23 17:11:00,49.0,32.0,-100.00,NW,316,8.0,16.0,51,0.00,,,-99.99,585.000000,,2013-03-24 00:11:00,
2013-03-23 17:33:00,49.0,32.0,-100.00,NW,316,8.0,16.0,51,0.00,,,-99.99,585.000000,,2013-03-24 00:33:00,
2013-03-23 17:42:00,49.0,32.0,-100.00,NW,316,8.0,16.0,51,0.00,,,-99.99,585.000000,,2013-03-24 00:42:00,
2013-03-23 17:52:00,49.0,32.0,-100.00,NW,316,8.0,16.0,51,0.00,,,-99.99,585.000000,,2013-03-24 00:52:00,
2013-03-23 18:02:00,49.0,32.0,-100.00,NW,316,8.0,16.0,51,0.00,,,-99.99,585.000000,,2013-03-24 01:02:00,
2013-03-23 18:11:00,45.0,28.0,-100.00,NNW,344,9.0,17.0,52,0.00,,,0.00,345.000000,,2013-03-24 01:11:00,
2013-03-23 18:33:00,45.0,28.0,-100.00,NNW,344,9.0,17.0,52,0.00,,,0.00,345.000000,,2013-03-24 01:33:00,
2013-03-23 18:43:00,45.0,28.0,-100.00,NNW,344,9.0,17.0,52,0.00,,,0.00,345.000000,,2013-03-24 01:43:00,
2013-03-23 18:53:00,45.0,28.0,-100.00,NNW,344,9.0,17.0,52,0.00,,,0.00,345.000000,,2013-03-24 01:53:00,
2013-03-23 19:02:00,45.0,28.0,-100.00,NNW,344,9.0,17.0,52,0.00,,,0.00,345.000000,,2013-03-24 02:02:00,
2013-03-23 19:11:00,43.0,32.0,-100.00,NNW,339,10.0,15.0,64,0.00,,,0.00,101.000000,,2013-03-24 02:11:00,
2013-03-23 19:43:00,43.0,32.0,-100.00,NNW,339,10.0,15.0,64,0.00,,,0.00,101.000000,,2013-03-24 02:43:00,
2013-03-23 19:52:00,43.0,32.0,-100.00,NNW,339,10.0,15.0,64,0.00,,,0.00,101.000000,,2013-03-24 02:52:00,
2013-03-23 20:02:00,43.0,32.0,-100.00,NNW,339,10.0,15.0,64,0.00,,,0.00,101.000000,,2013-03-24 03:02:00,
2013-03-23 20:11:00,39.0,29.0,-100.00,NNW,340,12.0,16.0,67,0.00,,,0.00,3.000000,,2013-03-24 03:11:00,
2013-03-23 20:33:00,39.0,29.0,-100.00,NNW,340,12.0,16.0,67,0.00,,,0.00,3.000000,,2013-03-24 03:33:00,
2013-03-23 20:43:00,39.0,29.0,-100.00,NNW,340,12.0,16.0,67,0.00,,,0.00,3.000000,,2013-03-24 03:43:00,
2013-03-23 20:53:00,39.0,29.0,-100.00,NNW,340,12.0,16.0,67,0.00,,,0.00,3.000000,,2013-03-24 03:53:00,
2013-03-23 21:02:00,39.0,29.0,-100.00,NNW,340,12.0,16.0,67,0.00,,,0.00,3.000000,,2013-03-24 04:02:00,
2013-03-23 21:11:00,39.0,31.0,-100.00,North,7,10.0,15.0,73,0.00,,,0.00,0.000000,,2013-03-24 04:11:00,
2013-03-23 21:33:00,39.0,31.0,-100.00,North,7,10.0,15.0,73,0.00,,,0.00,0.000000,,2013-03-24 04:33:00,
2013-03-23 21:43:00,39.0,31.0,-100.00,North,7,10.0,15.0,73,0.00,,,0.00,0.000000,,2013-03-24 04:43:00,
2013-03-23 21:53:00,39.0,31.0,-100.00,North,7,10.0,15.0,73,0.00,,,0.00,0.000000,,2013-03-24 04:53:00,
2013-03-23 22:02:00,39.0,31.0,-100.00,North,7,10.0,15.0,73,0.00,,,0.00,0.000000,,2013-03-24 05:02:00,
2013-03-23 22:11:00,38.0,30.0,-100.00,NE,50,10.0,14.0,72,0.00,,,0.00,0.000000,,2013-03-24 05:11:00,
2013-03-23 22:32:00,38.0,30.0,-100.00,NE,50,10.0,14.0,72,0.00,,,0.00,0.000000,,2013-03-24 05:32:00,
2013-03-23 22:43:00,38.0,30.0,-100.00,NE,50,10.0,14.0,72,0.00,,,0.00,0.000000,,2013-03-24 05:43:00,
2013-03-23 22:52:00,38.0,30.0,-100.00,NE,50,10.0,14.0,72,0.00,,,0.00,0.000000,,2013-03-24 05:52:00,
2013-03-23 23:02:00,38.0,30.0,-100.00,NE,50,10.0,14.0,72,0.00,,,0.00,0.000000,,2013-03-24 06:02:00,
2013-03-23 23:11:00,40.0,32.0,-100.00,ENE,78,4.0,13.0,73,0.00,,,0.00,0.000000,,2013-03-24 06:11:00,
2013-03-23 23:32:00,40.0,32.0,-100.00,ENE,78,4.0,13.0,73,0.00,,,0.00,0.000000,,2013-03-24 06:32:00,
2013-03-23 23:42:00,40.0,32.0,-100.00,ENE,78,4.0,13.0,73,0.00,,,0.00,0.000000,,2013-03-24 06:42:00,
2013-03-23 23:52:00,40.0,32.0,-100.00,ENE,78,4.0,13.0,73,0.00,,,0.00,0.000000,,2013-03-24 06:52:00,